Terminal Aerodrome Forecast
Issued by NWS Twin Cities, MN

Home | Current Version | Previous Version | Graphics & Text | Print | Product List | Glossary On
Versions: 1 2 3 4 5 6 7 8 9 10 11 12 13 14 15 16 17 18 19
000
FTUS43 KMPX 271124
TAFSTC
TAF
KSTC 271124Z 2712/2812 VRB03KT P6SM SCT035 OVC090
     FM271500 02004KT P6SM BKN100
     FM272000 02006KT P6SM BKN250
     FM280000 06003KT P6SM SCT250=

USA.gov is the U.S. government's official web portal to all federal, state and local government web resources and services.